Time;durP1;ratioP1;P1;durP2;ratioP2;P2;SDS_P1;SDS_P2;PMS_P1;PMS_P2;Temp;Humidity;BMP_temperature;BMP_pressure;BME280_temperature;BME280_humidity;BME280_pressure;Samples;Min_cycle;Max_cycle;Signal;HPM_P1;HPM_P2
2023/10/29 00:01:29;;;;;;;;;;;;;;;-144.99;100.00;52525.56;5096140;28;20222;-66
2023/10/29 00:03:55;;;;;;;;;;;;;;;-144.99;100.00;52550.00;5101904;28;19928;-66
2023/10/29 00:06:22;;;;;;;;;;;;;;;-144.99;100.00;52545.94;5099963;28;19960;-66
2023/10/29 00:08:48;;;;;;;;;;;;;;;-144.99;100.00;52562.25;5094995;28;20373;-68
2023/10/29 00:11:16;;;;;;;;;;;;;;;-144.99;100.00;52590.78;5097143;28;20460;-67
2023/10/29 00:13:43;;;;;;;;;;;;;;;-144.99;100.00;52570.38;5097215;28;19967;-67
2023/10/29 00:16:11;;;;;;;;;;;;;;;-144.99;100.00;52525.56;5112945;28;19924;-74
2023/10/29 00:18:37;;;;;;;;;;;;;;;-144.99;100.00;52558.16;5113146;28;19958;-72
2023/10/29 00:21:04;;;;;;;;;;;;;;;-144.99;100.00;52545.94;5087313;28;20799;-74
2023/10/29 00:23:31;;;;;;;;;;;;;;;-144.99;100.00;52560.19;5104771;28;19928;-71
2023/10/29 00:25:57;;;;;;;;;;;;;;;-144.99;100.00;52533.69;5092933;28;19961;-71
2023/10/29 00:28:26;;;;;;;;;;;;;;;-144.99;100.00;52537.78;5089226;28;20030;-70
2023/10/29 00:30:55;;;;;;;;;;;;;;;-144.99;100.00;52586.69;5092259;28;20006;-70
2023/10/29 00:33:21;;;;;;;;;;;;;;;-144.99;100.00;52576.50;5070982;28;20305;-70
2023/10/29 00:35:48;;;;;;;;;;;;;;;-144.99;100.00;52580.59;5105080;28;19931;-70
2023/10/29 00:38:14;;;;;;;;;;;;;;;-144.99;100.00;52562.25;5088216;28;20040;-70
2023/10/29 00:40:40;;;;;;;;;;;;;;;-144.99;100.00;52521.47;5100909;28;19969;-70
2023/10/29 00:43:07;;;;;;;;;;;;;;;-144.99;100.00;52570.38;5096350;28;20019;-70
2023/10/29 00:45:36;;;;;;;;;;;;;;;-144.99;100.00;52562.25;5088710;28;20031;-70
2023/10/29 00:48:03;;;;;;;;;;;;;;;-144.99;100.00;52529.63;5097385;28;19930;-70
2023/10/29 00:50:29;;;;;;;;;;;;;;;-144.99;100.00;52513.31;5099477;28;19961;-69
2023/10/29 00:52:56;;;;;;;;;;;;;;;-144.99;100.00;52497.00;5092627;28;20448;-70
2023/10/29 00:55:23;;;;;;;;;;;;;;;-144.99;100.00;52550.00;5096496;28;20034;-70
2023/10/29 00:57:49;;;;;;;;;;;;;;;-144.99;100.00;52513.31;5091960;28;20051;-70
2023/10/29 01:00:18;;;;;;;;;;;;;;;-144.99;100.00;52560.19;5094739;28;19928;-69
2023/10/29 01:02:46;;;;;;;;;;;;;;;-144.99;100.00;52533.69;5099296;28;19954;-69
2023/10/29 01:05:12;;;;;;;;;;;;;;;-144.99;100.00;52550.00;5101424;28;19990;-69
2023/10/29 01:07:39;;;;;;;;;;;;;;;-144.99;100.00;52541.84;5107796;28;20110;-69
2023/10/29 01:10:06;;;;;;;;;;;;;;;-144.99;100.00;52533.69;5100015;28;19938;-69
2023/10/29 01:12:33;;;;;;;;;;;;;;;-144.99;100.00;52558.16;5101995;28;19971;-71
2023/10/29 01:14:59;;;;;;;;;;;;;;;-144.99;100.00;52558.16;5093716;28;20018;-74
2023/10/29 01:17:26;;;;;;;;;;;;;;;-144.99;100.00;52566.31;5109854;27;19963;-72
2023/10/29 01:19:54;;;;;;;;;;;;;;;-144.99;100.00;52560.19;5104787;27;19963;-75
2023/10/29 01:22:20;;;;;;;;;;;;;;;-144.99;100.00;52594.84;5101575;28;20339;-72
2023/10/29 01:24:47;;;;;;;;;;;;;;;-144.99;100.00;52521.47;5103537;28;19971;-73
2023/10/29 01:27:13;;;;;;;;;;;;;;;-144.99;100.00;52554.09;5098765;28;19924;-74
2023/10/29 01:29:40;;;;;;;;;;;;;;;-144.99;100.00;52582.63;5099993;28;19924;-73
2023/10/29 01:32:06;;;;;;;;;;;;;;;-144.99;100.00;52545.94;5105347;28;20023;-74
2023/10/29 01:34:33;;;;;;;;;;;;;;;-144.99;100.00;52545.94;5099074;28;20047;-68
2023/10/29 01:37:00;;;;;;;;;;;;;;;-144.99;100.00;52509.25;5090820;28;19928;-65
2023/10/29 01:39:28;;;;;;;;;;;;;;;-144.99;100.00;52562.25;5092848;28;20189;-65
2023/10/29 01:41:55;;;;;;;;;;;;;;;-144.99;100.00;52554.09;5095191;28;19969;-65
2023/10/29 01:44:22;;;;;;;;;;;;;;;-144.99;100.00;52605.03;5093547;28;20340;-70
2023/10/29 01:46:48;;;;;;;;;;;;;;;-144.99;100.00;52558.16;5103357;28;19965;-70
2023/10/29 01:49:15;;;;;;;;;;;;;;;-144.99;100.00;52517.41;5095439;28;19928;-71
2023/10/29 01:51:41;;;;;;;;;;;;;;;-144.99;100.00;52537.78;5094649;28;19995;-70
2023/10/29 01:54:09;;;;;;;;;;;;;;;-144.99;100.00;52533.69;5105241;28;19927;-70
2023/10/29 01:56:36;;;;;;;;;;;;;;;-144.99;100.00;52541.84;5099982;28;20017;-70
2023/10/29 01:59:02;;;;;;;;;;;;;;;-144.99;100.00;52521.47;5107107;28;20019;-71
2023/10/29 02:01:29;;;;;;;;;;;;;;;-144.99;100.00;52541.84;5107392;28;19989;-72
2023/10/29 02:03:55;;;;;;;;;;;;;;;-144.99;100.00;52515.34;5099492;28;20404;-72
2023/10/29 02:06:21;;;;;;;;;;;;;;;-144.99;100.00;52547.97;5093292;28;20440;-72
2023/10/29 02:08:48;;;;;;;;;;;;;;;-144.99;100.00;52558.16;5107884;27;19982;-72
2023/10/29 02:11:16;;;;;;;;;;;;;;;-144.99;100.00;52578.53;5107587;28;19938;-71
2023/10/29 02:13:42;;;;;;;;;;;;;;;-144.99;100.00;52547.97;5102165;28;19987;-72
2023/10/29 02:16:10;;;;;;;;;;;;;;;-144.99;100.00;52533.69;5101462;28;19963;-71
2023/10/29 02:18:36;;;;;;;;;;;;;;;-144.99;100.00;52550.00;5086488;28;20289;-70
2023/10/29 02:21:03;;;;;;;;;;;;;;;-144.99;100.00;52525.56;5106735;28;19927;-71
2023/10/29 02:23:31;;;;;;;;;;;;;;;-144.99;100.00;52529.63;5098202;28;19963;-71
2023/10/29 02:25:57;;;;;;;;;;;;;;;-144.99;100.00;52550.00;5090288;28;19967;-73
2023/10/29 02:28:24;;;;;;;;;;;;;;;-144.99;100.00;52523.50;4742936;28;10000022;-70
2023/10/29 02:30:51;;;;;;;;;;;;;;;-144.99;100.00;52541.84;5098547;28;19985;-70
2023/10/29 02:33:17;;;;;;;;;;;;;;;-144.99;100.00;52529.63;5101417;28;19924;-70
2023/10/29 02:35:44;;;;;;;;;;;;;;;-144.99;100.00;52603.00;5102167;28;20361;-69
2023/10/29 02:38:10;;;;;;;;;;;;;;;-144.99;100.00;52554.09;5094685;28;19928;-73
2023/10/29 02:40:38;;;;;;;;;;;;;;;-144.99;100.00;52513.31;5092455;28;20381;-67
2023/10/29 02:43:06;;;;;;;;;;;;;;;-144.99;100.00;52521.47;5098196;28;19970;-67
2023/10/29 02:45:32;;;;;;;;;;;;;;;-144.99;100.00;52570.38;5102316;28;19977;-67
2023/10/29 02:47:59;;;;;;;;;;;;;;;-144.99;100.00;52564.28;5102552;28;20102;-67
2023/10/29 02:50:25;;;;;;;;;;;;;;;-144.99;100.00;52545.94;5094756;28;19970;-69
2023/10/29 02:52:52;;;;;;;;;;;;;;;-144.99;100.00;52543.91;5100978;28;19967;-70
2023/10/29 02:55:18;;;;;;;;;;;;;;;-144.99;100.00;52545.94;5106209;28;20027;-69
2023/10/29 02:57:46;;;;;;;;;;;;;;;-144.99;100.00;52558.16;5100057;28;19923;-70
2023/10/29 03:00:13;;;;;;;;;;;;;;;-144.99;100.00;52537.78;5097368;28;19936;-70
2023/10/29 03:02:40;;;;;;;;;;;;;;;-144.99;100.00;52588.75;5070496;28;19928;-70
2023/10/29 03:05:07;;;;;;;;;;;;;;;-144.99;100.00;52558.16;5096563;28;19969;-69
2023/10/29 03:07:33;;;;;;;;;;;;;;;-144.99;100.00;52539.81;5107173;27;20007;-67
2023/10/29 03:09:59;;;;;;;;;;;;;;;-144.99;100.00;52558.16;5089435;28;19978;-72
2023/10/29 03:12:26;;;;;;;;;;;;;;;-144.99;100.00;52562.25;5091140;28;20032;-72
2023/10/29 03:14:54;;;;;;;;;;;;;;;-144.99;100.00;52509.25;5101117;28;20080;-72
2023/10/29 03:17:21;;;;;;;;;;;;;;;-144.99;100.00;52556.13;5104244;28;19928;-72
2023/10/29 03:19:47;;;;;;;;;;;;;;;-144.99;100.00;52554.09;5108260;27;19935;-71
2023/10/29 03:22:13;;;;;;;;;;;;;;;-144.99;100.00;52509.25;5109060;22;19954;-68
2023/10/29 03:24:40;;;;;;;;;;;;;;;-144.99;100.00;52590.78;5129804;27;19924;-67
2023/10/29 03:27:07;;;;;;;;;;;;;;;-144.99;100.00;52541.84;5120574;27;20105;-67
2023/10/29 03:29:33;;;;;;;;;;;;;;;-144.99;100.00;52547.97;5122898;27;19931;-66
2023/10/29 03:32:03;;;;;;;;;;;;;;;-144.99;100.00;52537.78;5125304;27;19928;-66
2023/10/29 03:34:30;;;;;;;;;;;;;;;-144.99;100.00;52529.63;5116202;27;19924;-67
2023/10/29 03:36:57;;;;;;;;;;;;;;;-144.99;100.00;52533.69;5125816;27;19986;-67
2023/10/29 03:39:23;;;;;;;;;;;;;;;-144.99;100.00;52533.69;5129499;27;19958;-66
2023/10/29 03:41:50;;;;;;;;;;;;;;;-144.99;100.00;52552.03;5129535;27;19980;-68
2023/10/29 03:44:16;;;;;;;;;;;;;;;-144.99;100.00;52562.25;5122503;27;20405;-67
2023/10/29 03:46:43;;;;;;;;;;;;;;;-144.99;100.00;52537.78;5124844;27;20017;-66
2023/10/29 03:49:15;;;;;;;;;;;;;;;-144.99;100.00;52552.03;5126592;27;20015;-66
2023/10/29 03:51:44;;;;;;;;;;;;;;;-144.99;100.00;52517.41;5129448;28;20115;-66
2023/10/29 03:54:11;;;;;;;;;;;;;;;-144.99;100.00;52529.63;5121729;28;19927;-66
2023/10/29 03:56:37;;;;;;;;;;;;;;;-144.99;100.00;52539.81;5126748;27;20369;-68
2023/10/29 03:59:04;;;;;;;;;;;;;;;-144.99;100.00;52529.63;5114295;27;20045;-68
2023/10/29 04:01:31;;;;;;;;;;;;;;;-144.99;100.00;52525.56;5133127;27;20092;-68
2023/10/29 04:03:57;;;;;;;;;;;;;;;-144.99;100.00;52554.09;5127879;27;19959;-67
2023/10/29 04:06:25;;;;;;;;;;;;;;;-144.99;100.00;52521.47;5128201;27;20006;-68
2023/10/29 04:08:52;;;;;;;;;;;;;;;-144.99;100.00;52562.25;5128442;27;20026;-68
2023/10/29 04:11:18;;;;;;;;;;;;;;;-144.99;100.00;52550.00;5133615;27;19984;-68
2023/10/29 04:13:45;;;;;;;;;;;;;;;-144.99;100.00;52543.91;5122741;27;19924;-68
2023/10/29 04:16:12;;;;;;;;;;;;;;;-144.99;100.00;52539.81;5125704;27;19930;-68
2023/10/29 04:18:38;;;;;;;;;;;;;;;-144.99;100.00;52541.84;5132723;27;19953;-68
2023/10/29 04:21:06;;;;;;;;;;;;;;;-144.99;100.00;52578.53;5128194;27;19963;-68
2023/10/29 04:23:33;;;;;;;;;;;;;;;-144.99;100.00;52525.56;5130995;27;20296;-70
2023/10/29 04:26:00;;;;;;;;;;;;;;;-144.99;100.00;52525.56;5129972;27;20175;-68
2023/10/29 04:28:26;;;;;;;;;;;;;;;-144.99;100.00;52570.38;5133354;27;19969;-68
2023/10/29 04:30:54;;;;;;;;;;;;;;;-144.99;100.00;52586.69;5126140;27;19969;-69
2023/10/29 04:33:20;;;;;;;;;;;;;;;-144.99;100.00;52537.78;5121375;27;20003;-71
2023/10/29 04:35:47;;;;;;;;;;;;;;;-144.99;100.00;52545.94;5131668;27;19970;-69
2023/10/29 04:38:13;;;;;;;;;;;;;;;-144.99;100.00;52545.94;5129427;27;20126;-68
2023/10/29 04:40:41;;;;;;;;;;;;;;;-144.99;100.00;52550.00;5114244;27;20214;-68
2023/10/29 04:43:08;;;;;;;;;;;;;;;-144.99;100.00;52541.84;5125117;27;19957;-73
2023/10/29 04:45:34;;;;;;;;;;;;;;;-144.99;100.00;52539.81;5129362;27;19927;-73
2023/10/29 04:48:01;;;;;;;;;;;;;;;-144.99;100.00;52537.78;5126635;27;19979;-73
2023/10/29 04:50:30;;;;;;;;;;;;;;;-144.99;100.00;52488.84;5126448;27;20025;-73
2023/10/29 04:52:56;;;;;;;;;;;;;;;-144.99;100.00;52550.00;5119042;27;20382;-73
2023/10/29 04:55:23;;;;;;;;;;;;;;;-144.99;100.00;52570.38;5124833;27;19927;-71
2023/10/29 04:57:51;;;;;;;;;;;;;;;-144.99;100.00;52541.84;5125979;27;19927;-74
2023/10/29 05:00:18;;;;;;;;;;;;;;;-144.99;100.00;52501.09;5128297;27;19931;-74
2023/10/29 05:02:44;;;;;;;;;;;;;;;-144.99;100.00;52554.09;5126003;27;20005;-71
2023/10/29 05:05:11;;;;;;;;;;;;;;;-144.99;100.00;52566.31;5129554;27;20388;-71
2023/10/29 05:07:38;;;;;;;;;;;;;;;-144.99;100.00;52550.00;5124080;27;19957;-72
2023/10/29 05:10:04;;;;;;;;;;;;;;;-144.99;100.00;52541.84;5124620;27;19967;-67
2023/10/29 05:12:31;;;;;;;;;;;;;;;-144.99;100.00;52560.19;5127052;27;20165;-68
2023/10/29 05:14:59;;;;;;;;;;;;;;;-144.99;100.00;52537.78;5132006;27;19962;-67
2023/10/29 05:17:25;;;;;;;;;;;;;;;-144.99;100.00;52533.69;5130154;27;19979;-68
2023/10/29 05:19:52;;;;;;;;;;;;;;;-144.99;100.00;52541.84;5121732;27;20006;-68
2023/10/29 05:22:18;;;;;;;;;;;;;;;-144.99;100.00;52533.69;5125300;27;19932;-71
2023/10/29 05:24:44;;;;;;;;;;;;;;;-144.99;100.00;52554.09;5123445;27;19967;-69
2023/10/29 05:27:11;;;;;;;;;;;;;;;-144.99;100.00;52550.00;5119100;27;20352;-71
2023/10/29 05:29:37;;;;;;;;;;;;;;;-144.99;100.00;52541.84;5118218;27;19967;-70
2023/10/29 05:32:06;;;;;;;;;;;;;;;-144.99;100.00;52533.69;5127341;27;19963;-72
2023/10/29 05:34:33;;;;;;;;;;;;;;;-144.99;100.00;52492.94;5132061;27;19971;-71
2023/10/29 05:36:59;;;;;;;;;;;;;;;-144.99;100.00;52527.59;5119421;27;19937;-70
2023/10/29 05:39:26;;;;;;;;;;;;;;;-144.99;100.00;52537.78;5116237;27;20357;-71
2023/10/29 05:41:53;;;;;;;;;;;;;;;-144.99;100.00;52562.25;5126068;27;20391;-72
2023/10/29 05:44:19;;;;;;;;;;;;;;;-144.99;100.00;52558.16;5123241;27;20366;-72
2023/10/29 05:46:46;;;;;;;;;;;;;;;-144.99;100.00;52562.25;5124552;27;20385;-72
2023/10/29 05:49:14;;;;;;;;;;;;;;;-144.99;100.00;52562.25;5125914;27;19923;-73
2023/10/29 05:51:40;;;;;;;;;;;;;;;-144.99;100.00;52513.31;5122706;27;19927;-73
2023/10/29 05:54:07;;;;;;;;;;;;;;;-144.99;100.00;52521.47;5111578;28;19959;-70
2023/10/29 05:56:33;;;;;;;;;;;;;;;-144.99;100.00;52541.84;5128579;27;20004;-70
2023/10/29 05:59:00;;;;;;;;;;;;;;;-144.99;100.00;52525.56;5120814;27;19959;-69
2023/10/29 06:01:26;;;;;;;;;;;;;;;-144.99;100.00;52547.97;5126374;27;19977;-69
2023/10/29 06:03:53;;;;;;;;;;;;;;;-144.99;100.00;52517.41;5118365;27;20031;-69
2023/10/29 06:06:20;;;;;;;;;;;;;;;-144.99;100.00;52533.69;5116673;27;19928;-69
2023/10/29 06:08:47;;;;;;;;;;;;;;;-144.99;100.00;52533.69;5117019;27;19923;-70
2023/10/29 06:11:13;;;;;;;;;;;;;;;-144.99;100.00;52550.00;5124511;27;20002;-70
2023/10/29 06:13:43;;;;;;;;;;;;;;;-144.99;100.00;52523.50;5125588;27;19928;-70
2023/10/29 06:16:10;;;;;;;;;;;;;;;-144.99;100.00;52509.25;5127351;27;19950;-70
2023/10/29 06:18:36;;;;;;;;;;;;;;;-144.99;100.00;52545.94;5121643;27;19923;-70
2023/10/29 06:21:03;;;;;;;;;;;;;;;-144.99;100.00;52533.69;5129711;27;19966;-71
2023/10/29 06:23:31;;;;;;;;;;;;;;;-144.99;100.00;52525.56;5122320;27;20022;-71
2023/10/29 06:25:58;;;;;;;;;;;;;;;-144.99;100.00;52550.00;5126104;27;20350;-70
2023/10/29 06:28:24;;;;;;;;;;;;;;;-144.99;100.00;52550.00;5132319;27;19988;-70
2023/10/29 06:30:50;;;;;;;;;;;;;;;-144.99;100.00;52543.91;5127941;27;20097;-70
2023/10/29 06:33:17;;;;;;;;;;;;;;;-144.99;100.00;52558.16;5125267;27;19923;-69
2023/10/29 06:35:43;;;;;;;;;;;;;;;-144.99;100.00;52558.16;5130321;27;19924;-69
2023/10/29 06:38:10;;;;;;;;;;;;;;;-144.99;100.00;52533.69;5110613;28;20241;-70
2023/10/29 06:40:38;;;;;;;;;;;;;;;-144.99;100.00;52513.31;5120899;27;20332;-68
2023/10/29 06:43:04;;;;;;;;;;;;;;;-144.99;100.00;52523.50;5123652;27;19930;-69
2023/10/29 06:45:31;;;;;;;;;;;;;;;-144.99;100.00;52525.56;5117312;27;19987;-69
2023/10/29 06:47:58;;;;;;;;;;;;;;;-144.99;100.00;52470.50;5119149;27;19923;-69
2023/10/29 06:50:24;;;;;;;;;;;;;;;-144.99;100.00;52521.47;5131282;27;19934;-69
2023/10/29 06:52:50;;;;;;;;;;;;;;;-144.99;100.00;52525.56;5125020;27;20033;-69
2023/10/29 06:55:17;;;;;;;;;;;;;;;-144.99;100.00;52521.47;5130218;27;20061;-69
2023/10/29 06:57:45;;;;;;;;;;;;;;;-144.99;100.00;52505.16;5123259;27;19923;-70
2023/10/29 07:00:12;;;;;;;;;;;;;;;-144.99;100.00;52523.50;5119170;27;20027;-70
2023/10/29 07:02:38;;;;;;;;;;;;;;;-144.99;100.00;52525.56;5127419;27;20483;-73
2023/10/29 07:05:06;;;;;;;;;;;;;;;-144.99;100.00;52537.78;5120458;27;19963;-74
2023/10/29 07:07:34;;;;;;;;;;;;;;;-144.99;100.00;52492.94;5116394;27;20441;-75
2023/10/29 07:10:01;;;;;;;;;;;;;;;-144.99;100.00;52517.41;5122403;27;19923;-75
2023/10/29 07:12:27;;;;;;;;;;;;;;;-144.99;100.00;52543.91;5127446;27;20309;-75
2023/10/29 07:14:56;;;;;;;;;;;;;;;-144.99;100.00;52513.31;5125586;27;20242;-76
2023/10/29 07:17:22;;;;;;;;;;;;;;;-144.99;100.00;52497.00;5129940;27;20203;-76
2023/10/29 07:19:49;;;;;;;;;;;;;;;-144.99;100.00;52537.78;5121094;27;19959;-68
2023/10/29 07:22:16;;;;;;;;;;;;;;;-144.99;100.00;52460.31;5120219;27;19977;-74
2023/10/29 07:24:42;;;;;;;;;;;;;;;-144.99;100.00;52545.94;5121843;27;19976;-69
2023/10/29 07:27:09;;;;;;;;;;;;;;;-144.99;100.00;52464.41;5114611;27;19929;-68
2023/10/29 07:29:35;;;;;;;;;;;;;;;-144.99;100.00;52494.97;5122992;27;20440;-70
2023/10/29 07:32:03;;;;;;;;;;;;;;;-144.99;100.00;52497.00;5123281;27;20436;-70
2023/10/29 07:34:29;;;;;;;;;;;;;;;-144.99;100.00;52484.78;5116112;27;20069;-69
2023/10/29 07:36:56;;;;;;;;;;;;;;;-144.99;100.00;52533.69;5125755;27;20010;-70
2023/10/29 07:39:22;;;;;;;;;;;;;;;-144.99;100.00;52509.25;5128815;27;20018;-70
2023/10/29 07:41:49;;;;;;;;;;;;;;;-144.99;100.00;52547.97;5120439;27;20022;-71
2023/10/29 07:44:15;;;;;;;;;;;;;;;-144.99;100.00;52519.44;5122640;27;19951;-71
2023/10/29 07:46:42;;;;;;;;;;;;;;;-144.99;100.00;52533.69;5121138;27;19924;-71
2023/10/29 07:49:09;;;;;;;;;;;;;;;-144.99;100.00;52519.44;5117564;27;20454;-70
2023/10/29 07:51:36;;;;;;;;;;;;;;;-144.99;100.00;52537.78;5126728;28;20023;-69
2023/10/29 07:54:03;;;;;;;;;;;;;;;-144.99;100.00;52527.59;5120950;28;19959;-69
2023/10/29 07:56:29;;;;;;;;;;;;;;;-144.99;100.00;52545.94;5123296;28;20014;-70
2023/10/29 07:58:55;;;;;;;;;;;;;;;-144.99;100.00;52497.00;5119220;28;19963;-72
2023/10/29 08:01:22;;;;;;;;;;;;;;;-144.99;100.00;52521.47;5131086;28;20493;-76
2023/10/29 08:03:50;;;;;;;;;;;;;;;-144.99;100.00;52523.50;5136942;27;19962;-77
2023/10/29 08:06:18;;;;;;;;;;;;;;;-144.99;100.00;52525.56;5115148;28;20322;-75
2023/10/29 08:08:44;;;;;;;;;;;;;;;-144.99;100.00;52539.81;5119502;28;19928;-75
2023/10/29 08:11:18;;;;;;;;;;;;;;;-144.99;100.00;52488.84;5119723;28;19928;-76
2023/10/29 08:13:44;;;;;;;;;;;;;;;-144.99;100.00;52525.56;5120810;28;19924;-77
2023/10/29 08:16:11;;;;;;;;;;;;;;;-144.99;100.00;52472.56;5126567;28;19986;-78
2023/10/29 08:18:37;;;;;;;;;;;;;;;-144.99;100.00;52537.78;5122669;28;19927;-77
2023/10/29 08:21:04;;;;;;;;;;;;;;;-144.99;100.00;52501.09;5119507;28;19953;-77
2023/10/29 08:23:32;;;;;;;;;;;;;;;-144.99;100.00;52488.84;5129760;28;19923;-78
2023/10/29 08:25:59;;;;;;;;;;;;;;;-144.99;100.00;52505.16;5118600;28;19954;-78
2023/10/29 08:28:27;;;;;;;;;;;;;;;-144.99;100.00;52472.56;5125153;28;19923;-78
2023/10/29 08:30:54;;;;;;;;;;;;;;;-144.99;100.00;52501.09;5128090;28;19941;-77
2023/10/29 08:33:20;;;;;;;;;;;;;;;-144.99;100.00;52464.41;5118506;28;19954;-77
2023/10/29 08:35:47;;;;;;;;;;;;;;;-144.99;100.00;52513.31;5126361;27;20412;-77
2023/10/29 08:38:14;;;;;;;;;;;;;;;-144.99;100.00;52466.44;5125410;28;19924;-76
2023/10/29 08:40:41;;;;;;;;;;;;;;;-144.99;100.00;52488.84;5123940;28;20307;-76
2023/10/29 08:43:08;;;;;;;;;;;;;;;-144.99;100.00;52446.06;5130515;27;19955;-77
2023/10/29 08:45:35;;;;;;;;;;;;;;;-144.99;100.00;52474.59;5144682;27;19960;-78
2023/10/29 08:48:01;;;;;;;;;;;;;;;-144.99;100.00;52472.56;5131837;27;19952;-79
2023/10/29 08:50:29;;;;;;;;;;;;;;;-144.99;100.00;52460.31;5127481;27;20003;-78
2023/10/29 08:52:55;;;;;;;;;;;;;;;-144.99;100.00;52435.88;5142544;27;20401;-78
2023/10/29 08:55:22;;;;;;;;;;;;;;;-144.99;100.00;52448.09;5144562;27;19938;-78
2023/10/29 08:57:50;;;;;;;;;;;;;;;-144.99;100.00;52423.63;5143995;27;19927;-78
2023/10/29 09:00:18;;;;;;;;;;;;;;;-144.99;100.00;52419.56;5143425;27;19988;-77
2023/10/29 09:02:44;;;;;;;;;;;;;;;-144.99;97.49;52468.47;5135466;27;19958;-76
2023/10/29 09:05:11;;;;;;;;;;;;;;;-144.99;96.87;52431.78;5140674;27;19976;-76
2023/10/29 09:07:38;;;;;;;;;;;;;;;-144.99;96.73;52431.78;5142193;27;19931;-76
2023/10/29 09:10:04;;;;;;;;;;;;;;;-144.99;95.63;52437.91;5142810;27;19911;-83
2023/10/29 09:12:31;;;;;;;;;;;;;;;-144.99;94.83;52427.72;5150231;27;19927;-85
2023/10/29 09:14:59;;;;;;;;;;;;;;;-144.99;94.08;52435.88;5146490;27;19968;-77
2023/10/29 09:17:26;;;;;;;;;;;;;;;-144.99;93.13;52452.16;5130921;27;19985;-71
2023/10/29 09:19:52;;;;;;;;;;;;;;;-144.99;93.63;52452.16;5121266;27;20372;-71
2023/10/29 09:22:19;;;;;;;;;;;;;;;-144.99;92.46;52441.97;5123926;27;19927;-69
2023/10/29 09:24:46;;;;;;;;;;;;;;;-144.99;91.86;52417.53;5119109;27;19924;-70
2023/10/29 09:27:12;;;;;;;;;;;;;;;-144.99;90.83;52448.09;5131532;27;20364;-71
2023/10/29 09:29:40;;;;;;;;;;;;;;;-144.99;92.12;52409.38;5135100;27;19951;-71
2023/10/29 09:32:08;;;;;;;;;;;;;;;-144.99;93.13;52439.94;5099477;27;19931;-71
2023/10/29 09:34:34;;;;;;;;;;;;;;;-144.99;91.89;52431.78;5128280;27;19962;-71
2023/10/29 09:37:01;;;;;;;;;;;;;;;-144.99;90.14;52446.06;5129374;27;20397;-71
2023/10/29 09:39:27;;;;;;;;;;;;;;;-144.99;91.08;52448.09;5130742;27;20409;-71
2023/10/29 09:41:55;;;;;;;;;;;;;;;-144.99;93.01;52488.84;5130681;27;19975;-75
2023/10/29 09:44:21;;;;;;;;;;;;;;;-144.99;93.75;52431.78;5128048;27;19978;-75
2023/10/29 09:46:52;;;;;;;;;;;;;;;-144.99;90.50;52431.78;5124966;27;20263;-74
2023/10/29 09:49:20;;;;;;;;;;;;;;;-144.99;90.26;52450.13;5123712;27;20019;-74
2023/10/29 09:51:47;;;;;;;;;;;;;;;-144.99;92.48;52476.63;5126318;27;19930;-76
2023/10/29 09:54:15;;;;;;;;;;;;;;;-144.99;94.03;52480.72;5121761;27;19923;-73
2023/10/29 09:56:41;;;;;;;;;;;;;;;-144.99;96.33;52480.72;5129152;27;20022;-76
2023/10/29 09:59:08;;;;;;;;;;;;;;;-144.99;97.10;52505.16;5121814;27;19969;-76
2023/10/29 10:01:34;;;;;;;;;;;;;;;-144.99;98.14;52505.16;5123052;27;20365;-75
2023/10/29 10:04:01;;;;;;;;;;;;;;;-144.99;98.39;52533.69;5129847;27;19983;-75
2023/10/29 10:06:29;;;;;;;;;;;;;;;-144.99;99.18;52497.00;5128587;27;19983;-75
2023/10/29 10:08:58;;;;;;;;;;;;;;;-144.99;99.90;52513.31;5127867;22;19951;-70
2023/10/29 10:11:25;;;;;;;;;;;;;;;-144.99;100.00;52497.00;5106462;28;19928;-69
2023/10/29 10:13:52;;;;;;;;;;;;;;;-144.99;100.00;52517.41;5087063;28;19925;-69
2023/10/29 10:16:20;;;;;;;;;;;;;;;-144.99;100.00;52480.72;5089635;28;19967;-70
2023/10/29 10:18:51;;;;;;;;;;;;;;;-144.99;100.00;52391.03;5089771;28;19963;-70
2023/10/29 10:21:20;;;;;;;;;;;;;;;-144.99;95.46;52313.56;5081947;28;19924;-70
2023/10/29 10:23:48;;;;;;;;;;;;;;;-144.99;90.75;52439.94;5086842;28;19993;-70
2023/10/29 10:26:18;;;;;;;;;;;;;;;-144.99;86.75;52293.19;5076872;28;19969;-70
2023/10/29 10:28:53;;;;;;;;;;;;;;;-144.99;82.40;52276.88;5088505;28;19940;-70
2023/10/29 10:31:20;;;;;;;;;;;;;;;-144.99;78.95;52287.06;5088330;28;20477;-70
2023/10/29 10:33:46;;;;;;;;;;;;;;;-144.99;76.91;52276.88;5062567;28;19928;-78
2023/10/29 10:36:13;;;;;;;;;;;;;;;-144.99;73.43;52270.78;5100225;28;20006;-72
2023/10/29 10:38:51;;;;;;;;;;;;;;;-144.99;72.08;52278.91;5104817;28;19928;-72
2023/10/29 10:41:19;;;;;;;;;;;;;;;-144.99;70.39;52252.44;5082329;28;20078;-72
2023/10/29 10:43:46;;;;;;;;;;;;;;;-144.99;69.77;52395.09;5084778;28;20015;-72
2023/10/29 10:46:13;;;;;;;;;;;;;;;-144.99;72.75;52256.50;5102594;28;19924;-72
2023/10/29 10:48:41;;;;;;;;;;;;;;;-144.99;72.38;52297.25;5089491;28;20250;-72
2023/10/29 10:51:10;;;;;;;;;;;;;;;-144.99;70.32;52270.78;5088627;28;19929;-72
2023/10/29 10:53:37;;;;;;;;;;;;;;;-144.99;69.15;52248.34;5087830;28;20194;-70
2023/10/29 10:56:04;;;;;;;;;;;;;;;-144.99;67.63;52285.03;5101057;28;19928;-73
2023/10/29 10:58:34;;;;;;;;;;;;;;;-144.99;66.89;52285.03;5090443;28;19981;-73
2023/10/29 11:01:01;;;;;;;;;;;;;;;-144.99;65.48;52252.44;5088915;28;19935;-73
2023/10/29 11:03:30;;;;;;;;;;;;;;;-144.99;66.38;52329.88;5086817;28;20006;-74
2023/10/29 11:05:57;;;;;;;;;;;;;;;-144.99;66.91;52244.28;5097252;28;20293;-73
2023/10/29 11:08:24;;;;;;;;;;;;;;;-144.99;67.26;52289.13;5088593;28;19963;-73
2023/10/29 11:10:53;;;;;;;;;;;;;;;-144.99;67.28;52358.41;5089274;28;20301;-71
2023/10/29 11:13:20;;;;;;;;;;;;;;;-144.99;66.46;52350.25;5090437;28;19924;-72
2023/10/29 11:15:48;;;;;;;;;;;;;;;-144.99;65.91;52315.59;5093203;28;20309;-70
2023/10/29 11:18:15;;;;;;;;;;;;;;;-144.99;67.79;52356.38;5096529;28;19956;-72
2023/10/29 11:20:59;;;;;;;;;;;;;;;-144.99;68.61;52358.41;5088636;28;20018;-71
2023/10/29 11:23:26;;;;;;;;;;;;;;;-144.99;69.11;52329.88;5087072;28;19927;-74
2023/10/29 11:26:11;;;;;;;;;;;;;;;-144.99;68.50;52289.13;5101390;28;19964;-73
2023/10/29 11:28:42;;;;;;;;;;;;;;;-144.99;65.80;52256.50;5087589;28;20023;-74
2023/10/29 11:31:14;;;;;;;;;;;;;;;-144.99;65.57;52230.00;5081025;28;19932;-71
2023/10/29 11:33:41;;;;;;;;;;;;;;;-144.99;64.92;52321.72;5088403;28;20074;-75
2023/10/29 11:36:26;;;;;;;;;;;;;;;-144.99;64.21;52395.09;5091949;28;19928;-72
2023/10/29 11:38:53;;;;;;;;;;;;;;;-144.99;65.42;52289.13;5091344;28;19932;-73
2023/10/29 11:41:32;;;;;;;;;;;;;;;-144.99;64.70;52260.56;5088323;28;19944;-71
2023/10/29 11:44:18;;;;;;;;;;;;;;;-144.99;63.06;52213.69;5096978;28;19930;-72
2023/10/29 11:47:03;;;;;;;;;;;;;;;-144.99;61.90;52170.91;5088535;28;20011;-72
2023/10/29 11:49:51;;;;;;;;;;;;;;;-144.99;60.75;52197.41;5087444;28;20031;-73
2023/10/29 11:52:18;;;;;;;;;;;;;;;-144.99;59.58;52183.13;5084032;28;19982;-71
2023/10/29 11:54:45;;;;;;;;;;;;;;;-144.99;59.60;52203.50;5087173;28;20306;-72
2023/10/29 11:57:12;;;;;;;;;;;;;;;-144.99;60.59;52223.88;5092419;28;19928;-71
2023/10/29 11:59:53;;;;;;;;;;;;;;;-144.99;59.99;52234.09;5092086;28;20054;-73
2023/10/29 12:02:19;;;;;;;;;;;;;;;-144.99;59.34;52168.84;5091188;28;19928;-73
2023/10/29 12:04:47;;;;;;;;;;;;;;;-144.99;59.29;52248.34;5090956;28;19928;-72
2023/10/29 12:07:24;;;;;;;;;;;;;;;-144.99;61.18;52407.31;5088268;28;20332;-71
2023/10/29 12:09:59;;;;;;;;;;;;;;;-144.99;62.69;52407.31;5095693;28;20008;-73
2023/10/29 12:12:26;;;;;;;;;;;;;;;-144.99;64.23;52439.94;5085338;28;19982;-73
2023/10/29 12:14:52;;;;;;;;;;;;;;;-144.99;65.26;52452.16;5083958;28;19928;-72
2023/10/29 12:17:19;;;;;;;;;;;;;;;-144.99;66.11;52419.56;5092093;28;20516;-72
2023/10/29 12:19:47;;;;;;;;;;;;;;;-144.99;66.74;52472.56;5087022;28;19924;-73
2023/10/29 12:22:14;;;;;;;;;;;;;;;-144.99;68.32;52488.84;5081306;28;19978;-72